sensor_id;sensor_type;location;lat;lon;timestamp;temperature;humidity
6174;DHT22;3120;48.796;9.796;2023-02-28T00:01:02;-1.10;1.00
6174;DHT22;3120;48.796;9.796;2023-02-28T00:03:27;-1.10;1.00
6174;DHT22;3120;48.796;9.796;2023-02-28T00:05:53;-1.00;1.00
6174;DHT22;3120;48.796;9.796;2023-02-28T00:08:18;-0.90;99.90
6174;DHT22;3120;48.796;9.796;2023-02-28T00:10:44;-1.00;99.90
6174;DHT22;3120;48.796;9.796;2023-02-28T00:13:10;-0.90;99.90
6174;DHT22;3120;48.796;9.796;2023-02-28T00:15:36;-0.90;99.90
6174;DHT22;3120;48.796;9.796;2023-02-28T00:18:02;-0.90;99.90
6174;DHT22;3120;48.796;9.796;2023-02-28T00:20:28;-1.00;1.00
6174;DHT22;3120;48.796;9.796;2023-02-28T00:22:54;-1.00;18.50
6174;DHT22;3120;48.796;9.796;2023-02-28T00:25:23;-0.90;1.00
6174;DHT22;3120;48.796;9.796;2023-02-28T00:27:49;-0.90;99.90
6174;DHT22;3120;48.796;9.796;2023-02-28T00:30:17;-0.90;99.90
6174;DHT22;3120;48.796;9.796;2023-02-28T00:35:12;-0.90;99.90
6174;DHT22;3120;48.796;9.796;2023-02-28T00:37:38;-1.00;99.90
6174;DHT22;3120;48.796;9.796;2023-02-28T00:40:05;-0.90;1.00
6174;DHT22;3120;48.796;9.796;2023-02-28T00:42:32;-0.90;99.90
6174;DHT22;3120;48.796;9.796;2023-02-28T00:44:58;-0.80;99.90
6174;DHT22;3120;48.796;9.796;2023-02-28T00:47:23;-1.00;83.10
6174;DHT22;3120;48.796;9.796;2023-02-28T00:49:49;-0.90;1.00
6174;DHT22;3120;48.796;9.796;2023-02-28T00:52:14;-0.90;1.00
6174;DHT22;3120;48.796;9.796;2023-02-28T00:54:40;-1.00;99.90
6174;DHT22;3120;48.796;9.796;2023-02-28T00:57:06;-1.00;99.90
6174;DHT22;3120;48.796;9.796;2023-02-28T00:59:31;-0.90;99.90
6174;DHT22;3120;48.796;9.796;2023-02-28T01:01:57;-1.00;1.00
6174;DHT22;3120;48.796;9.796;2023-02-28T01:04:22;-1.00;1.00
6174;DHT22;3120;48.796;9.796;2023-02-28T01:06:48;-1.00;99.90
6174;DHT22;3120;48.796;9.796;2023-02-28T01:09:14;-1.00;33.70
6174;DHT22;3120;48.796;9.796;2023-02-28T01:11:39;-1.10;1.00
6174;DHT22;3120;48.796;9.796;2023-02-28T01:14:07;-1.10;99.90
6174;DHT22;3120;48.796;9.796;2023-02-28T01:16:32;-1.10;31.40
6174;DHT22;3120;48.796;9.796;2023-02-28T01:18:58;-1.00;1.00
6174;DHT22;3120;48.796;9.796;2023-02-28T01:21:23;-1.10;1.00
6174;DHT22;3120;48.796;9.796;2023-02-28T01:23:49;-1.00;1.00
6174;DHT22;3120;48.796;9.796;2023-02-28T01:26:21;-1.00;99.90
6174;DHT22;3120;48.796;9.796;2023-02-28T01:28:48;-1.00;1.00
6174;DHT22;3120;48.796;9.796;2023-02-28T01:31:14;-1.10;99.90
6174;DHT22;3120;48.796;9.796;2023-02-28T01:33:40;-1.10;1.00
6174;DHT22;3120;48.796;9.796;2023-02-28T01:36:15;-1.10;96.00
6174;DHT22;3120;48.796;9.796;2023-02-28T01:38:41;-1.10;1.00
6174;DHT22;3120;48.796;9.796;2023-02-28T01:41:07;-1.00;99.90
6174;DHT22;3120;48.796;9.796;2023-02-28T01:46:09;-1.10;99.90
6174;DHT22;3120;48.796;9.796;2023-02-28T01:48:38;-1.10;1.00
6174;DHT22;3120;48.796;9.796;2023-02-28T01:51:10;-1.00;99.90
6174;DHT22;3120;48.796;9.796;2023-02-28T01:53:39;-1.00;1.00
6174;DHT22;3120;48.796;9.796;2023-02-28T01:56:09;-1.10;99.90
6174;DHT22;3120;48.796;9.796;2023-02-28T01:58:37;-1.10;99.90
6174;DHT22;3120;48.796;9.796;2023-02-28T02:01:03;-1.10;99.90
6174;DHT22;3120;48.796;9.796;2023-02-28T02:03:30;-1.20;99.90
6174;DHT22;3120;48.796;9.796;2023-02-28T02:05:57;-1.10;14.30
6174;DHT22;3120;48.796;9.796;2023-02-28T02:08:25;-1.20;99.90
6174;DHT22;3120;48.796;9.796;2023-02-28T02:10:56;-1.20;99.90
6174;DHT22;3120;48.796;9.796;2023-02-28T02:22:04;-1.10;1.00
6174;DHT22;3120;48.796;9.796;2023-02-28T02:33:12;-1.10;1.00
6174;DHT22;3120;48.796;9.796;2023-02-28T02:35:50;-1.10;1.00
6174;DHT22;3120;48.796;9.796;2023-02-28T02:38:33;-1.20;1.00
6174;DHT22;3120;48.796;9.796;2023-02-28T02:41:14;-1.10;99.90
6174;DHT22;3120;48.796;9.796;2023-02-28T02:43:48;-1.20;99.90
6174;DHT22;3120;48.796;9.796;2023-02-28T02:46:42;-1.10;1.00
6174;DHT22;3120;48.796;9.796;2023-02-28T02:49:19;-1.20;99.90
6174;DHT22;3120;48.796;9.796;2023-02-28T02:51:47;-1.20;99.90
6174;DHT22;3120;48.796;9.796;2023-02-28T02:54:35;-1.20;99.90
6174;DHT22;3120;48.796;9.796;2023-02-28T02:57:06;-1.30;1.00
6174;DHT22;3120;48.796;9.796;2023-02-28T02:59:36;-1.20;1.00
6174;DHT22;3120;48.796;9.796;2023-02-28T03:02:06;-1.10;1.00
6174;DHT22;3120;48.796;9.796;2023-02-28T03:04:38;-1.10;99.90
6174;DHT22;3120;48.796;9.796;2023-02-28T03:07:05;-1.20;1.00
6174;DHT22;3120;48.796;9.796;2023-02-28T03:09:33;-1.10;1.00
6174;DHT22;3120;48.796;9.796;2023-02-28T03:12:01;-1.10;1.00
6174;DHT22;3120;48.796;9.796;2023-02-28T03:14:34;-1.10;99.90
6174;DHT22;3120;48.796;9.796;2023-02-28T03:22:21;-1.00;99.90
6174;DHT22;3120;48.796;9.796;2023-02-28T03:27:39;-1.00;96.80
6174;DHT22;3120;48.796;9.796;2023-02-28T03:30:42;-1.10;99.90
6174;DHT22;3120;48.796;9.796;2023-02-28T03:33:16;-1.10;1.00
6174;DHT22;3120;48.796;9.796;2023-02-28T03:35:50;-1.00;1.00
6174;DHT22;3120;48.796;9.796;2023-02-28T03:38:46;-1.00;1.00
6174;DHT22;3120;48.796;9.796;2023-02-28T03:41:42;-1.00;1.00
6174;DHT22;3120;48.796;9.796;2023-02-28T03:44:18;-1.00;99.90
6174;DHT22;3120;48.796;9.796;2023-02-28T03:46:52;-1.00;99.90
6174;DHT22;3120;48.796;9.796;2023-02-28T03:49:28;-1.00;99.90
6174;DHT22;3120;48.796;9.796;2023-02-28T03:51:58;-0.90;99.90
6174;DHT22;3120;48.796;9.796;2023-02-28T03:54:31;-1.40;1.00
6174;DHT22;3120;48.796;9.796;2023-02-28T03:57:15;-1.00;99.90
6174;DHT22;3120;48.796;9.796;2023-02-28T03:59:47;-1.00;1.00
6174;DHT22;3120;48.796;9.796;2023-02-28T04:02:15;-0.90;99.90
6174;DHT22;3120;48.796;9.796;2023-02-28T04:04:40;-0.90;1.00
6174;DHT22;3120;48.796;9.796;2023-02-28T04:07:11;-0.90;99.90
6174;DHT22;3120;48.796;9.796;2023-02-28T04:09:37;-0.90;1.00
6174;DHT22;3120;48.796;9.796;2023-02-28T04:12:03;-1.30;1.00
6174;DHT22;3120;48.796;9.796;2023-02-28T04:14:29;-1.00;1.00
6174;DHT22;3120;48.796;9.796;2023-02-28T04:16:55;-1.00;1.00
6174;DHT22;3120;48.796;9.796;2023-02-28T04:19:20;-1.00;99.90
6174;DHT22;3120;48.796;9.796;2023-02-28T04:21:48;-0.90;1.00
6174;DHT22;3120;48.796;9.796;2023-02-28T04:24:26;-0.90;99.90
6174;DHT22;3120;48.796;9.796;2023-02-28T04:26:54;-0.90;1.00
6174;DHT22;3120;48.796;9.796;2023-02-28T04:29:25;-0.90;1.00
6174;DHT22;3120;48.796;9.796;2023-02-28T04:31:53;-0.90;1.00
6174;DHT22;3120;48.796;9.796;2023-02-28T04:34:19;-0.90;1.00
6174;DHT22;3120;48.796;9.796;2023-02-28T04:36:47;-1.00;1.00
6174;DHT22;3120;48.796;9.796;2023-02-28T04:39:15;-0.90;1.00
6174;DHT22;3120;48.796;9.796;2023-02-28T04:42:18;-0.90;99.90
6174;DHT22;3120;48.796;9.796;2023-02-28T04:44:43;-0.90;1.00
6174;DHT22;3120;48.796;9.796;2023-02-28T04:47:09;-0.90;99.90
6174;DHT22;3120;48.796;9.796;2023-02-28T04:49:34;-0.80;99.90
6174;DHT22;3120;48.796;9.796;2023-02-28T04:52:00;-0.90;99.90
6174;DHT22;3120;48.796;9.796;2023-02-28T04:54:26;-0.90;99.90
6174;DHT22;3120;48.796;9.796;2023-02-28T04:56:51;-0.90;1.00
6174;DHT22;3120;48.796;9.796;2023-02-28T04:59:17;-0.90;1.00
6174;DHT22;3120;48.796;9.796;2023-02-28T05:01:46;-0.90;99.70
6174;DHT22;3120;48.796;9.796;2023-02-28T05:04:12;-0.80;99.90
6174;DHT22;3120;48.796;9.796;2023-02-28T05:06:38;-0.80;1.00
6174;DHT22;3120;48.796;9.796;2023-02-28T05:09:03;-0.80;99.90
6174;DHT22;3120;48.796;9.796;2023-02-28T05:11:31;-0.80;1.00
6174;DHT22;3120;48.796;9.796;2023-02-28T05:14:01;-0.90;1.00
6174;DHT22;3120;48.796;9.796;2023-02-28T05:16:27;-0.90;1.00
6174;DHT22;3120;48.796;9.796;2023-02-28T05:18:53;-0.80;99.90
6174;DHT22;3120;48.796;9.796;2023-02-28T05:21:27;-0.90;1.00
6174;DHT22;3120;48.796;9.796;2023-02-28T05:23:53;-0.80;1.00
6174;DHT22;3120;48.796;9.796;2023-02-28T05:26:20;-0.80;1.00
6174;DHT22;3120;48.796;9.796;2023-02-28T05:28:46;-0.90;1.00
6174;DHT22;3120;48.796;9.796;2023-02-28T05:31:12;-0.80;1.00
6174;DHT22;3120;48.796;9.796;2023-02-28T05:33:38;-0.80;99.90
6174;DHT22;3120;48.796;9.796;2023-02-28T05:36:04;-0.80;99.90
6174;DHT22;3120;48.796;9.796;2023-02-28T05:38:30;-0.70;99.90
6174;DHT22;3120;48.796;9.796;2023-02-28T05:40:55;-0.80;99.90
6174;DHT22;3120;48.796;9.796;2023-02-28T05:43:21;-0.80;1.00
6174;DHT22;3120;48.796;9.796;2023-02-28T05:45:47;-0.80;1.00
6174;DHT22;3120;48.796;9.796;2023-02-28T05:48:12;-0.80;1.00
6174;DHT22;3120;48.796;9.796;2023-02-28T05:50:38;-0.80;99.90
6174;DHT22;3120;48.796;9.796;2023-02-28T05:53:04;-0.70;99.90
6174;DHT22;3120;48.796;9.796;2023-02-28T05:55:29;-0.80;1.00
6174;DHT22;3120;48.796;9.796;2023-02-28T05:57:55;-0.80;1.00
6174;DHT22;3120;48.796;9.796;2023-02-28T06:00:22;-0.80;99.90
6174;DHT22;3120;48.796;9.796;2023-02-28T06:02:47;-0.80;1.00
6174;DHT22;3120;48.796;9.796;2023-02-28T06:05:15;-0.80;99.90
6174;DHT22;3120;48.796;9.796;2023-02-28T06:07:41;-0.90;99.90
6174;DHT22;3120;48.796;9.796;2023-02-28T06:10:09;-0.90;1.00
6174;DHT22;3120;48.796;9.796;2023-02-28T06:12:34;-0.80;99.90
6174;DHT22;3120;48.796;9.796;2023-02-28T06:15:00;-0.80;99.90
6174;DHT22;3120;48.796;9.796;2023-02-28T06:17:26;-0.80;76.50
6174;DHT22;3120;48.796;9.796;2023-02-28T06:19:51;-0.90;99.90
6174;DHT22;3120;48.796;9.796;2023-02-28T06:22:17;-0.90;1.00
6174;DHT22;3120;48.796;9.796;2023-02-28T06:24:44;-0.80;99.90
6174;DHT22;3120;48.796;9.796;2023-02-28T06:27:11;-0.80;99.90
6174;DHT22;3120;48.796;9.796;2023-02-28T06:29:36;-0.80;1.00
6174;DHT22;3120;48.796;9.796;2023-02-28T06:32:05;-0.70;99.90
6174;DHT22;3120;48.796;9.796;2023-02-28T06:34:31;-0.60;1.00
6174;DHT22;3120;48.796;9.796;2023-02-28T06:36:57;-0.70;99.90
6174;DHT22;3120;48.796;9.796;2023-02-28T06:39:30;-0.60;99.90
6174;DHT22;3120;48.796;9.796;2023-02-28T06:41:56;-0.70;99.90
6174;DHT22;3120;48.796;9.796;2023-02-28T06:44:22;-0.70;1.00
6174;DHT22;3120;48.796;9.796;2023-02-28T06:46:48;-0.70;99.90
6174;DHT22;3120;48.796;9.796;2023-02-28T06:49:15;-0.70;99.90
6174;DHT22;3120;48.796;9.796;2023-02-28T06:51:42;-0.60;14.20
6174;DHT22;3120;48.796;9.796;2023-02-28T06:54:10;-0.60;99.90
6174;DHT22;3120;48.796;9.796;2023-02-28T06:56:35;-0.50;14.70
6174;DHT22;3120;48.796;9.796;2023-02-28T06:59:02;-0.60;1.00
6174;DHT22;3120;48.796;9.796;2023-02-28T07:01:27;-0.50;44.40
6174;DHT22;3120;48.796;9.796;2023-02-28T07:03:54;-0.40;1.00
6174;DHT22;3120;48.796;9.796;2023-02-28T07:06:21;-0.50;99.90
6174;DHT22;3120;48.796;9.796;2023-02-28T07:08:51;-0.50;1.00
6174;DHT22;3120;48.796;9.796;2023-02-28T07:11:19;-0.50;99.90
6174;DHT22;3120;48.796;9.796;2023-02-28T07:13:44;-0.40;61.10
6174;DHT22;3120;48.796;9.796;2023-02-28T07:16:12;-0.40;99.90
6174;DHT22;3120;48.796;9.796;2023-02-28T07:18:38;-0.40;99.90
6174;DHT22;3120;48.796;9.796;2023-02-28T07:21:05;-0.30;45.70
6174;DHT22;3120;48.796;9.796;2023-02-28T07:23:32;-0.30;1.00
6174;DHT22;3120;48.796;9.796;2023-02-28T07:25:57;-0.30;99.90
6174;DHT22;3120;48.796;9.796;2023-02-28T07:28:23;-0.20;99.90
6174;DHT22;3120;48.796;9.796;2023-02-28T07:30:49;-0.30;98.30
6174;DHT22;3120;48.796;9.796;2023-02-28T07:33:15;-0.30;99.90
6174;DHT22;3120;48.796;9.796;2023-02-28T07:35:41;-0.20;1.00
6174;DHT22;3120;48.796;9.796;2023-02-28T07:38:07;-0.20;1.00
6174;DHT22;3120;48.796;9.796;2023-02-28T07:40:33;-0.20;99.90
6174;DHT22;3120;48.796;9.796;2023-02-28T07:43:00;-0.30;1.00
6174;DHT22;3120;48.796;9.796;2023-02-28T07:45:26;0.40;1.00
6174;DHT22;3120;48.796;9.796;2023-02-28T07:51:23;-0.10;1.00
6174;DHT22;3120;48.796;9.796;2023-02-28T07:53:49;-0.10;99.90
6174;DHT22;3120;48.796;9.796;2023-02-28T07:56:14;0.00;1.00
6174;DHT22;3120;48.796;9.796;2023-02-28T07:58:40;0.00;1.00
6174;DHT22;3120;48.796;9.796;2023-02-28T08:01:10;0.00;1.00
6174;DHT22;3120;48.796;9.796;2023-02-28T08:03:36;0.10;1.00
6174;DHT22;3120;48.796;9.796;2023-02-28T08:06:07;0.10;1.00
6174;DHT22;3120;48.796;9.796;2023-02-28T08:08:34;0.10;1.00
6174;DHT22;3120;48.796;9.796;2023-02-28T08:11:03;0.20;99.90
6174;DHT22;3120;48.796;9.796;2023-02-28T08:13:29;0.30;1.00
6174;DHT22;3120;48.796;9.796;2023-02-28T08:15:56;0.40;1.00
6174;DHT22;3120;48.796;9.796;2023-02-28T08:18:22;0.30;99.90
6174;DHT22;3120;48.796;9.796;2023-02-28T08:20:48;0.20;1.00
6174;DHT22;3120;48.796;9.796;2023-02-28T08:23:14;0.30;1.00
6174;DHT22;3120;48.796;9.796;2023-02-28T08:25:39;0.30;52.20
6174;DHT22;3120;48.796;9.796;2023-02-28T08:28:05;0.40;1.00
6174;DHT22;3120;48.796;9.796;2023-02-28T08:30:31;0.50;99.90
6174;DHT22;3120;48.796;9.796;2023-02-28T08:32:56;0.60;23.60
6174;DHT22;3120;48.796;9.796;2023-02-28T08:35:22;0.40;1.00
6174;DHT22;3120;48.796;9.796;2023-02-28T08:37:48;0.50;99.90
6174;DHT22;3120;48.796;9.796;2023-02-28T08:40:15;0.60;99.90
6174;DHT22;3120;48.796;9.796;2023-02-28T08:42:44;0.60;99.90
6174;DHT22;3120;48.796;9.796;2023-02-28T08:45:10;0.60;1.00
6174;DHT22;3120;48.796;9.796;2023-02-28T08:47:36;0.50;99.90
6174;DHT22;3120;48.796;9.796;2023-02-28T08:50:02;0.60;99.90
6174;DHT22;3120;48.796;9.796;2023-02-28T08:52:27;0.60;1.00
6174;DHT22;3120;48.796;9.796;2023-02-28T08:54:53;0.70;1.00
6174;DHT22;3120;48.796;9.796;2023-02-28T08:57:19;0.80;1.00
6174;DHT22;3120;48.796;9.796;2023-02-28T08:59:44;1.10;99.90
6174;DHT22;3120;48.796;9.796;2023-02-28T09:02:13;1.10;99.90
6174;DHT22;3120;48.796;9.796;2023-02-28T09:04:38;1.10;1.00
6174;DHT22;3120;48.796;9.796;2023-02-28T09:07:04;1.10;45.70
6174;DHT22;3120;48.796;9.796;2023-02-28T09:09:29;1.10;60.50
6174;DHT22;3120;48.796;9.796;2023-02-28T09:11:56;1.10;99.90
6174;DHT22;3120;48.796;9.796;2023-02-28T09:14:22;1.00;86.90
6174;DHT22;3120;48.796;9.796;2023-02-28T09:16:48;1.20;70.10
6174;DHT22;3120;48.796;9.796;2023-02-28T09:19:14;1.20;9.70
6174;DHT22;3120;48.796;9.796;2023-02-28T09:21:40;1.20;61.70
6174;DHT22;3120;48.796;9.796;2023-02-28T09:24:06;1.30;1.00
6174;DHT22;3120;48.796;9.796;2023-02-28T09:26:31;1.30;1.00
6174;DHT22;3120;48.796;9.796;2023-02-28T09:28:57;0.90;1.00
6174;DHT22;3120;48.796;9.796;2023-02-28T09:31:27;1.70;99.90
6174;DHT22;3120;48.796;9.796;2023-02-28T09:33:54;1.60;99.90
6174;DHT22;3120;48.796;9.796;2023-02-28T09:36:22;1.70;99.90
6174;DHT22;3120;48.796;9.796;2023-02-28T09:38:48;1.80;99.90
6174;DHT22;3120;48.796;9.796;2023-02-28T09:41:21;1.90;99.90
6174;DHT22;3120;48.796;9.796;2023-02-28T09:43:53;2.30;99.90
6174;DHT22;3120;48.796;9.796;2023-02-28T09:49:08;2.80;1.00
6174;DHT22;3120;48.796;9.796;2023-02-28T09:51:47;2.70;1.00
6174;DHT22;3120;48.796;9.796;2023-02-28T09:54:19;2.90;1.00
6174;DHT22;3120;48.796;9.796;2023-02-28T10:05:20;2.70;99.90
6174;DHT22;3120;48.796;9.796;2023-02-28T10:08:02;2.90;99.90
6174;DHT22;3120;48.796;9.796;2023-02-28T10:10:46;2.90;99.90
6174;DHT22;3120;48.796;9.796;2023-02-28T10:13:52;3.00;99.90
6174;DHT22;3120;48.796;9.796;2023-02-28T10:16:27;2.60;99.90
6174;DHT22;3120;48.796;9.796;2023-02-28T10:19:12;2.60;1.00
6174;DHT22;3120;48.796;9.796;2023-02-28T10:21:59;2.60;1.00
6174;DHT22;3120;48.796;9.796;2023-02-28T10:24:49;2.70;1.00
6174;DHT22;3120;48.796;9.796;2023-02-28T10:27:17;2.90;99.90
6174;DHT22;3120;48.796;9.796;2023-02-28T10:29:51;3.10;99.90
6174;DHT22;3120;48.796;9.796;2023-02-28T10:32:24;3.20;99.90
6174;DHT22;3120;48.796;9.796;2023-02-28T10:35:19;3.00;99.90
6174;DHT22;3120;48.796;9.796;2023-02-28T10:37:48;2.80;99.90
6174;DHT22;3120;48.796;9.796;2023-02-28T10:45:20;2.60;1.00
6174;DHT22;3120;48.796;9.796;2023-02-28T10:47:53;2.50;99.90
6174;DHT22;3120;48.796;9.796;2023-02-28T10:58:30;2.70;99.90
6174;DHT22;3120;48.796;9.796;2023-02-28T11:00:57;2.70;1.00
6174;DHT22;3120;48.796;9.796;2023-02-28T11:03:29;2.70;99.90
6174;DHT22;3120;48.796;9.796;2023-02-28T11:05:56;2.80;1.00
6174;DHT22;3120;48.796;9.796;2023-02-28T11:08:22;2.90;99.90
6174;DHT22;3120;48.796;9.796;2023-02-28T11:10:59;3.00;99.90
6174;DHT22;3120;48.796;9.796;2023-02-28T11:13:32;3.00;99.90
6174;DHT22;3120;48.796;9.796;2023-02-28T11:16:02;3.30;99.90
6174;DHT22;3120;48.796;9.796;2023-02-28T11:18:53;3.60;99.90
6174;DHT22;3120;48.796;9.796;2023-02-28T11:21:29;3.70;99.90
6174;DHT22;3120;48.796;9.796;2023-02-28T11:24:02;3.70;99.90
6174;DHT22;3120;48.796;9.796;2023-02-28T11:26:41;3.80;99.90
6174;DHT22;3120;48.796;9.796;2023-02-28T11:29:16;3.70;99.90
6174;DHT22;3120;48.796;9.796;2023-02-28T11:31:42;3.60;99.90
6174;DHT22;3120;48.796;9.796;2023-02-28T11:34:25;3.60;99.90
6174;DHT22;3120;48.796;9.796;2023-02-28T11:36:56;3.70;99.90
6174;DHT22;3120;48.796;9.796;2023-02-28T11:39:23;3.80;99.90
6174;DHT22;3120;48.796;9.796;2023-02-28T11:41:56;3.70;99.90
6174;DHT22;3120;48.796;9.796;2023-02-28T11:47:34;4.00;99.90
6174;DHT22;3120;48.796;9.796;2023-02-28T11:50:16;4.10;99.90
6174;DHT22;3120;48.796;9.796;2023-02-28T11:55:31;4.20;99.90
6174;DHT22;3120;48.796;9.796;2023-02-28T12:04:25;4.60;99.90
6174;DHT22;3120;48.796;9.796;2023-02-28T12:07:00;4.50;99.90
6174;DHT22;3120;48.796;9.796;2023-02-28T12:12:43;4.60;99.90
6174;DHT22;3120;48.796;9.796;2023-02-28T12:26:55;4.70;99.90
6174;DHT22;3120;48.796;9.796;2023-02-28T12:29:29;4.80;99.90
6174;DHT22;3120;48.796;9.796;2023-02-28T12:32:06;4.90;99.90
6174;DHT22;3120;48.796;9.796;2023-02-28T12:34:46;4.90;99.90
6174;DHT22;3120;48.796;9.796;2023-02-28T12:37:32;4.90;99.90
6174;DHT22;3120;48.796;9.796;2023-02-28T12:40:03;4.70;88.80
6174;DHT22;3120;48.796;9.796;2023-02-28T12:42:39;4.80;99.90
6174;DHT22;3120;48.796;9.796;2023-02-28T12:45:29;4.90;99.90
6174;DHT22;3120;48.796;9.796;2023-02-28T12:48:05;4.90;99.90
6174;DHT22;3120;48.796;9.796;2023-02-28T12:50:32;4.90;98.00
6174;DHT22;3120;48.796;9.796;2023-02-28T12:57:02;4.70;99.90
6174;DHT22;3120;48.796;9.796;2023-02-28T12:59:55;4.90;99.90
6174;DHT22;3120;48.796;9.796;2023-02-28T13:02:41;4.90;93.60
6174;DHT22;3120;48.796;9.796;2023-02-28T13:05:27;4.90;99.90
6174;DHT22;3120;48.796;9.796;2023-02-28T13:10:57;5.10;66.60
6174;DHT22;3120;48.796;9.796;2023-02-28T13:13:28;5.10;99.90
6174;DHT22;3120;48.796;9.796;2023-02-28T13:19:18;5.00;99.90
6174;DHT22;3120;48.796;9.796;2023-02-28T13:21:45;5.10;99.90
6174;DHT22;3120;48.796;9.796;2023-02-28T13:34:39;5.20;99.90
6174;DHT22;3120;48.796;9.796;2023-02-28T13:47:53;5.20;99.90
6174;DHT22;3120;48.796;9.796;2023-02-28T13:50:29;5.10;99.90
6174;DHT22;3120;48.796;9.796;2023-02-28T14:07:24;5.00;99.90
6174;DHT22;3120;48.796;9.796;2023-02-28T14:09:57;5.10;99.90
6174;DHT22;3120;48.796;9.796;2023-02-28T14:15:46;5.20;99.90
6174;DHT22;3120;48.796;9.796;2023-02-28T14:18:36;5.20;99.90
6174;DHT22;3120;48.796;9.796;2023-02-28T14:21:12;5.10;99.90
6174;DHT22;3120;48.796;9.796;2023-02-28T14:38:05;5.00;99.90
6174;DHT22;3120;48.796;9.796;2023-02-28T14:40:34;4.90;99.90
6174;DHT22;3120;48.796;9.796;2023-02-28T14:43:03;4.90;99.90
6174;DHT22;3120;48.796;9.796;2023-02-28T14:45:31;4.80;99.90
6174;DHT22;3120;48.796;9.796;2023-02-28T14:47:58;4.80;99.90
6174;DHT22;3120;48.796;9.796;2023-02-28T14:50:31;4.90;99.90
6174;DHT22;3120;48.796;9.796;2023-02-28T14:52:57;4.80;99.90
6174;DHT22;3120;48.796;9.796;2023-02-28T14:55:28;4.80;99.90
6174;DHT22;3120;48.796;9.796;2023-02-28T14:58:37;4.90;99.90
6174;DHT22;3120;48.796;9.796;2023-02-28T15:00:48;4.80;99.90
6174;DHT22;3120;48.796;9.796;2023-02-28T15:03:24;4.80;99.90
6174;DHT22;3120;48.796;9.796;2023-02-28T15:05:58;4.90;99.90
6174;DHT22;3120;48.796;9.796;2023-02-28T15:08:24;4.80;99.90
6174;DHT22;3120;48.796;9.796;2023-02-28T15:10:58;4.80;99.90
6174;DHT22;3120;48.796;9.796;2023-02-28T15:13:48;4.80;99.90
6174;DHT22;3120;48.796;9.796;2023-02-28T15:16:22;4.80;99.90
6174;DHT22;3120;48.796;9.796;2023-02-28T15:18:56;4.70;99.90
6174;DHT22;3120;48.796;9.796;2023-02-28T15:21:27;4.70;99.90
6174;DHT22;3120;48.796;9.796;2023-02-28T15:24:03;4.70;99.90
6174;DHT22;3120;48.796;9.796;2023-02-28T15:26:32;4.70;99.90
6174;DHT22;3120;48.796;9.796;2023-02-28T15:29:08;4.80;99.90
6174;DHT22;3120;48.796;9.796;2023-02-28T15:31:43;4.70;99.90
6174;DHT22;3120;48.796;9.796;2023-02-28T15:34:19;4.60;99.90
6174;DHT22;3120;48.796;9.796;2023-02-28T15:36:45;4.60;99.90
6174;DHT22;3120;48.796;9.796;2023-02-28T15:39:23;4.60;99.90
6174;DHT22;3120;48.796;9.796;2023-02-28T15:41:48;4.70;99.90
6174;DHT22;3120;48.796;9.796;2023-02-28T15:44:34;4.60;99.90
6174;DHT22;3120;48.796;9.796;2023-02-28T15:47:19;4.50;99.90
6174;DHT22;3120;48.796;9.796;2023-02-28T15:49:52;4.50;99.90
6174;DHT22;3120;48.796;9.796;2023-02-28T15:52:34;4.50;99.90
6174;DHT22;3120;48.796;9.796;2023-02-28T15:55:32;4.40;99.90
6174;DHT22;3120;48.796;9.796;2023-02-28T15:58:01;4.40;99.90
6174;DHT22;3120;48.796;9.796;2023-02-28T16:00:31;4.30;99.90
6174;DHT22;3120;48.796;9.796;2023-02-28T16:02:59;4.30;99.90
6174;DHT22;3120;48.796;9.796;2023-02-28T16:08:44;4.20;99.90
6174;DHT22;3120;48.796;9.796;2023-02-28T16:11:10;4.20;99.90
6174;DHT22;3120;48.796;9.796;2023-02-28T16:13:36;4.20;99.90
6174;DHT22;3120;48.796;9.796;2023-02-28T16:16:02;4.10;99.90
6174;DHT22;3120;48.796;9.796;2023-02-28T16:18:28;4.00;99.90
6174;DHT22;3120;48.796;9.796;2023-02-28T16:20:54;3.90;99.90
6174;DHT22;3120;48.796;9.796;2023-02-28T16:23:24;3.80;99.90
6174;DHT22;3120;48.796;9.796;2023-02-28T16:25:49;3.80;99.90
6174;DHT22;3120;48.796;9.796;2023-02-28T16:28:18;3.90;99.90
6174;DHT22;3120;48.796;9.796;2023-02-28T16:30:46;3.80;99.90
6174;DHT22;3120;48.796;9.796;2023-02-28T16:33:12;4.80;99.90
6174;DHT22;3120;48.796;9.796;2023-02-28T16:35:39;3.80;99.90
6174;DHT22;3120;48.796;9.796;2023-02-28T16:38:05;3.80;99.90
6174;DHT22;3120;48.796;9.796;2023-02-28T16:41:04;3.80;99.90
6174;DHT22;3120;48.796;9.796;2023-02-28T16:43:30;3.70;99.90
6174;DHT22;3120;48.796;9.796;2023-02-28T16:45:57;3.60;99.90
6174;DHT22;3120;48.796;9.796;2023-02-28T16:48:26;3.60;99.90
6174;DHT22;3120;48.796;9.796;2023-02-28T16:50:52;3.50;99.90
6174;DHT22;3120;48.796;9.796;2023-02-28T16:53:19;3.40;99.90
6174;DHT22;3120;48.796;9.796;2023-02-28T16:55:45;3.30;99.90
6174;DHT22;3120;48.796;9.796;2023-02-28T16:58:16;3.20;1.00
6174;DHT22;3120;48.796;9.796;2023-02-28T17:00:43;3.20;1.00
6174;DHT22;3120;48.796;9.796;2023-02-28T17:03:24;3.20;1.00
6174;DHT22;3120;48.796;9.796;2023-02-28T17:05:50;3.10;1.00
6174;DHT22;3120;48.796;9.796;2023-02-28T17:08:15;2.90;1.00
6174;DHT22;3120;48.796;9.796;2023-02-28T17:10:43;2.90;1.00
6174;DHT22;3120;48.796;9.796;2023-02-28T17:13:09;2.80;1.00
6174;DHT22;3120;48.796;9.796;2023-02-28T17:15:35;2.70;1.00
6174;DHT22;3120;48.796;9.796;2023-02-28T17:18:02;2.50;1.00
6174;DHT22;3120;48.796;9.796;2023-02-28T17:20:27;2.30;99.90
6174;DHT22;3120;48.796;9.796;2023-02-28T17:22:54;2.20;99.90
6174;DHT22;3120;48.796;9.796;2023-02-28T17:25:20;2.10;99.90
6174;DHT22;3120;48.796;9.796;2023-02-28T17:27:46;2.20;99.90
6174;DHT22;3120;48.796;9.796;2023-02-28T17:30:17;2.20;99.90
6174;DHT22;3120;48.796;9.796;2023-02-28T17:32:43;2.10;99.90
6174;DHT22;3120;48.796;9.796;2023-02-28T17:35:09;2.00;1.00
6174;DHT22;3120;48.796;9.796;2023-02-28T17:37:35;2.00;1.00
6174;DHT22;3120;48.796;9.796;2023-02-28T17:40:00;2.00;1.00
6174;DHT22;3120;48.796;9.796;2023-02-28T17:42:28;1.80;99.90
6174;DHT22;3120;48.796;9.796;2023-02-28T17:45:01;1.70;99.90
6174;DHT22;3120;48.796;9.796;2023-02-28T17:47:26;1.70;99.90
6174;DHT22;3120;48.796;9.796;2023-02-28T17:49:52;1.60;1.00
6174;DHT22;3120;48.796;9.796;2023-02-28T17:52:18;1.60;1.00
6174;DHT22;3120;48.796;9.796;2023-02-28T17:54:43;1.50;1.00
6174;DHT22;3120;48.796;9.796;2023-02-28T18:00:16;1.30;1.00
6174;DHT22;3120;48.796;9.796;2023-02-28T18:02:43;1.30;65.00
6174;DHT22;3120;48.796;9.796;2023-02-28T18:05:10;1.20;1.00
6174;DHT22;3120;48.796;9.796;2023-02-28T18:07:39;1.10;99.90
6174;DHT22;3120;48.796;9.796;2023-02-28T18:10:09;1.20;90.40
6174;DHT22;3120;48.796;9.796;2023-02-28T18:12:36;1.30;1.00
6174;DHT22;3120;48.796;9.796;2023-02-28T18:15:03;1.10;1.00
6174;DHT22;3120;48.796;9.796;2023-02-28T18:17:29;1.10;99.90
6174;DHT22;3120;48.796;9.796;2023-02-28T18:19:54;1.10;1.00
6174;DHT22;3120;48.796;9.796;2023-02-28T18:22:21;0.90;99.90
6174;DHT22;3120;48.796;9.796;2023-02-28T18:24:47;0.80;21.00
6174;DHT22;3120;48.796;9.796;2023-02-28T18:27:13;0.80;12.20
6174;DHT22;3120;48.796;9.796;2023-02-28T18:40:32;0.60;1.00
6174;DHT22;3120;48.796;9.796;2023-02-28T18:42:58;0.50;1.00
6174;DHT22;3120;48.796;9.796;2023-02-28T18:45:24;0.50;78.70
6174;DHT22;3120;48.796;9.796;2023-02-28T18:47:50;0.40;42.10
6174;DHT22;3120;48.796;9.796;2023-02-28T18:50:16;0.40;99.90
6174;DHT22;3120;48.796;9.796;2023-02-28T18:52:43;0.40;29.00
6174;DHT22;3120;48.796;9.796;2023-02-28T18:55:08;0.50;93.20
6174;DHT22;3120;48.796;9.796;2023-02-28T18:57:35;0.50;1.00
6174;DHT22;3120;48.796;9.796;2023-02-28T19:00:01;0.50;99.90
6174;DHT22;3120;48.796;9.796;2023-02-28T19:02:27;0.50;1.00
6174;DHT22;3120;48.796;9.796;2023-02-28T19:04:52;0.40;41.30
6174;DHT22;3120;48.796;9.796;2023-02-28T19:07:18;0.80;1.00
6174;DHT22;3120;48.796;9.796;2023-02-28T19:09:43;0.40;1.00
6174;DHT22;3120;48.796;9.796;2023-02-28T19:15:32;0.30;99.90
6174;DHT22;3120;48.796;9.796;2023-02-28T19:17:57;0.20;99.90
6174;DHT22;3120;48.796;9.796;2023-02-28T19:20:24;0.10;99.90
6174;DHT22;3120;48.796;9.796;2023-02-28T19:22:50;0.10;1.00